createdAt,value
2023-03-02T00:00:02.247Z,22.05
2023-03-02T00:02:56.516Z,21.20
2023-03-02T00:05:29.156Z,21.05
2023-03-02T00:08:01.197Z,21.25
2023-03-02T00:10:32.752Z,21.27
2023-03-02T00:13:04.676Z,20.97
2023-03-02T00:15:35.665Z,20.88
2023-03-02T00:18:06.959Z,20.30
2023-03-02T00:20:38.875Z,21.13
2023-03-02T00:23:10.023Z,21.87
2023-03-02T00:25:41.538Z,21.65
2023-03-02T00:28:12.524Z,21.52
2023-03-02T00:30:43.580Z,21.65
2023-03-02T00:33:14.622Z,20.15
2023-03-02T00:35:45.821Z,20.95
2023-03-02T00:38:17.104Z,21.68
2023-03-02T00:40:49.335Z,21.65
2023-03-02T00:43:22.957Z,19.25
2023-03-02T00:45:53.966Z,19.27
2023-03-02T00:48:25.004Z,19.85
2023-03-02T00:50:56.405Z,20.20
2023-03-02T00:53:27.468Z,20.00
2023-03-02T00:55:58.560Z,19.05
2023-03-02T00:58:30.264Z,20.05
2023-03-02T01:01:06.380Z,20.95
2023-03-02T01:03:38.648Z,19.85
2023-03-02T01:06:15.428Z,20.02
2023-03-02T01:08:47.035Z,19.50
2023-03-02T01:11:19.245Z,21.00
2023-03-02T01:16:20.067Z,20.50
2023-03-02T01:18:51.111Z,19.40
2023-03-02T01:21:22.435Z,20.60
2023-03-02T01:23:54.090Z,23.00
2023-03-02T01:26:25.252Z,21.02
2023-03-02T01:28:56.659Z,20.87
2023-03-02T01:31:28.346Z,18.95
2023-03-02T01:33:59.692Z,22.02
2023-03-02T01:36:31.260Z,21.40
2023-03-02T01:39:02.551Z,20.53
2023-03-02T01:41:34.221Z,20.37
2023-03-02T01:44:05.366Z,21.68
2023-03-02T01:46:36.518Z,21.55
2023-03-02T01:49:12.267Z,21.10
2023-03-02T01:51:50.863Z,20.97
2023-03-02T01:54:24.158Z,22.73
2023-03-02T01:57:03.993Z,20.90
2023-03-02T01:59:37.140Z,21.80
2023-03-02T02:02:09.867Z,21.05
2023-03-02T02:04:43.458Z,22.35
2023-03-02T02:07:14.604Z,20.87
2023-03-02T02:09:48.424Z,20.95
2023-03-02T02:12:21.237Z,21.25
2023-03-02T02:14:52.356Z,21.62
2023-03-02T02:17:23.659Z,20.45
2023-03-02T02:20:09.256Z,21.60
2023-03-02T02:22:55.445Z,19.60
2023-03-02T02:25:34.982Z,20.50
2023-03-02T02:28:08.660Z,20.00
2023-03-02T02:30:41.266Z,19.25
2023-03-02T02:33:15.338Z,18.25
2023-03-02T02:35:47.271Z,17.97
2023-03-02T02:38:20.602Z,18.50
2023-03-02T02:40:53.381Z,17.60
2023-03-02T02:43:29.355Z,17.10
2023-03-02T02:46:01.371Z,18.55
2023-03-02T02:48:33.503Z,17.07
2023-03-02T02:51:04.641Z,17.67
2023-03-02T02:53:39.069Z,16.75
2023-03-02T02:56:11.891Z,17.50
2023-03-02T02:58:46.053Z,17.35
2023-03-02T03:01:18.385Z,17.95
2023-03-02T03:06:23.491Z,17.60
2023-03-02T03:08:57.153Z,17.20
2023-03-02T03:11:35.414Z,17.10
2023-03-02T03:14:08.988Z,17.07
2023-03-02T03:16:42.372Z,17.00
2023-03-02T03:19:17.283Z,18.20
2023-03-02T03:21:50.604Z,19.03
2023-03-02T03:24:22.147Z,19.50
2023-03-02T03:26:54.931Z,17.67
2023-03-02T03:29:27.679Z,18.45
2023-03-02T03:32:02.777Z,19.73
2023-03-02T03:34:41.146Z,19.00
2023-03-02T03:37:21.234Z,19.57
2023-03-02T03:42:22.693Z,21.35
2023-03-02T03:44:54.269Z,18.52
2023-03-02T03:47:26.147Z,20.07
2023-03-02T03:49:57.144Z,20.07
2023-03-02T03:52:32.063Z,20.10
2023-03-02T03:55:16.708Z,19.65
2023-03-02T03:57:48.225Z,19.82
2023-03-02T04:00:20.108Z,21.05
2023-03-02T04:02:54.299Z,19.95
2023-03-02T04:05:26.482Z,21.07
2023-03-02T04:08:02.583Z,20.48
2023-03-02T04:10:34.989Z,20.20
2023-03-02T04:13:06.475Z,20.70
2023-03-02T04:15:38.485Z,20.75
2023-03-02T04:18:09.870Z,21.85
2023-03-02T04:20:41.701Z,21.45
2023-03-02T04:23:13.248Z,21.53
2023-03-02T04:25:44.464Z,21.93
2023-03-02T04:28:19.013Z,21.80
2023-03-02T04:30:51.926Z,21.10
2023-03-02T04:33:22.965Z,21.15
2023-03-02T04:35:54.706Z,21.50
2023-03-02T04:38:29.680Z,23.38
2023-03-02T04:41:01.489Z,23.45
2023-03-02T04:43:32.699Z,23.25
2023-03-02T04:46:03.675Z,22.85
2023-03-02T04:48:35.052Z,24.43
2023-03-02T04:51:06.327Z,24.70
2023-03-02T04:53:37.426Z,23.30
2023-03-02T04:56:08.881Z,24.35
2023-03-02T04:58:40.190Z,24.70
2023-03-02T05:01:12.499Z,24.70
2023-03-02T05:06:13.239Z,22.25
2023-03-02T05:08:44.170Z,25.20
2023-03-02T05:11:22.718Z,24.45
2023-03-02T05:13:54.971Z,23.90
2023-03-02T05:16:26.542Z,23.80
2023-03-02T05:18:57.866Z,23.75
2023-03-02T05:21:28.942Z,22.80
2023-03-02T05:24:00.218Z,24.03
2023-03-02T05:26:33.570Z,21.45
2023-03-02T05:29:05.201Z,22.47
2023-03-02T05:31:38.125Z,23.87
2023-03-02T05:34:11.210Z,23.25
2023-03-02T05:36:42.341Z,23.03
2023-03-02T05:39:13.418Z,23.43
2023-03-02T05:41:44.417Z,23.95
2023-03-02T05:44:15.442Z,23.00
2023-03-02T05:46:46.721Z,23.60
2023-03-02T05:49:17.834Z,24.23
2023-03-02T05:51:48.815Z,21.90
2023-03-02T05:54:19.897Z,23.10
2023-03-02T05:56:52.501Z,23.95
2023-03-02T05:59:23.735Z,22.35
2023-03-02T06:01:59.065Z,22.70
2023-03-02T06:04:30.244Z,22.95
2023-03-02T06:07:01.305Z,22.93
2023-03-02T06:09:32.271Z,21.80
2023-03-02T06:12:04.943Z,22.05
2023-03-02T06:14:36.928Z,22.90
2023-03-02T06:17:07.986Z,22.40
2023-03-02T06:19:39.136Z,23.15
2023-03-02T06:22:10.351Z,23.60
2023-03-02T06:24:41.490Z,22.05
2023-03-02T06:27:13.485Z,21.03
2023-03-02T06:29:44.653Z,22.85
2023-03-02T06:32:16.484Z,23.53
2023-03-02T06:34:48.333Z,22.03
2023-03-02T06:37:21.183Z,21.87
2023-03-02T06:39:52.328Z,21.47
2023-03-02T06:42:23.413Z,21.45
2023-03-02T06:44:55.434Z,21.20
2023-03-02T06:47:26.560Z,20.57
2023-03-02T06:49:58.027Z,21.73
2023-03-02T06:52:29.196Z,20.68
2023-03-02T06:55:00.305Z,20.83
2023-03-02T06:57:34.361Z,20.67
2023-03-02T07:00:10.434Z,18.95
2023-03-02T07:02:41.560Z,20.47
2023-03-02T07:05:12.818Z,18.45
2023-03-02T07:07:43.972Z,19.05
2023-03-02T07:10:15.553Z,20.10
2023-03-02T07:12:46.788Z,18.23
2023-03-02T07:15:18.022Z,18.80
2023-03-02T07:17:49.411Z,18.73
2023-03-02T07:20:20.678Z,18.03
2023-03-02T07:22:51.641Z,20.30
2023-03-02T07:25:22.635Z,18.05
2023-03-02T07:27:53.742Z,18.70
2023-03-02T07:30:25.044Z,19.60
2023-03-02T07:32:56.015Z,19.55
2023-03-02T07:35:27.202Z,19.00
2023-03-02T07:37:58.143Z,21.05
2023-03-02T07:40:29.113Z,19.53
2023-03-02T07:43:00.297Z,18.30
2023-03-02T07:45:31.533Z,17.60
2023-03-02T07:48:02.651Z,19.00
2023-03-02T07:50:34.055Z,17.67
2023-03-02T07:53:05.274Z,17.97
2023-03-02T07:55:36.347Z,18.10
2023-03-02T07:58:07.508Z,18.75
2023-03-02T08:00:42.364Z,17.55
2023-03-02T08:03:13.842Z,19.50
2023-03-02T08:05:44.862Z,18.25
2023-03-02T08:08:15.905Z,18.35
2023-03-02T08:10:47.074Z,17.95
2023-03-02T08:13:18.051Z,19.25
2023-03-02T08:15:49.178Z,17.10
2023-03-02T08:18:20.197Z,18.30
2023-03-02T08:20:51.192Z,17.90
2023-03-02T08:23:22.380Z,18.00
2023-03-02T08:25:53.583Z,17.05
2023-03-02T08:28:24.891Z,18.35
2023-03-02T08:33:28.049Z,17.80
2023-03-02T08:36:00.257Z,18.35
2023-03-02T08:41:00.726Z,16.90
2023-03-02T08:43:31.662Z,17.65
2023-03-02T08:46:03.282Z,18.80
2023-03-02T08:48:34.472Z,20.02
2023-03-02T08:51:07.304Z,19.47
2023-03-02T08:53:39.625Z,18.50
2023-03-02T08:58:40.053Z,20.10
2023-03-02T09:01:16.130Z,20.05
2023-03-02T09:03:47.085Z,18.90
2023-03-02T09:06:18.162Z,20.85
2023-03-02T09:08:49.310Z,19.80
2023-03-02T09:11:20.366Z,21.15
2023-03-02T09:13:51.528Z,20.10
2023-03-02T09:16:24.328Z,19.70
2023-03-02T09:18:56.206Z,19.55
2023-03-02T09:21:27.686Z,20.32
2023-03-02T09:23:59.442Z,19.95
2023-03-02T09:26:30.411Z,20.92
2023-03-02T09:29:01.676Z,19.30
2023-03-02T09:31:33.327Z,21.20
2023-03-02T09:34:05.482Z,20.75
2023-03-02T09:36:36.766Z,18.65
2023-03-02T09:39:12.631Z,20.67
2023-03-02T09:41:57.105Z,19.37
2023-03-02T09:44:42.097Z,18.90
2023-03-02T09:47:33.469Z,18.65
2023-03-02T09:50:13.167Z,19.05
2023-03-02T09:52:49.726Z,17.80
2023-03-02T09:55:23.873Z,18.50
2023-03-02T09:57:56.468Z,18.60
2023-03-02T10:00:29.600Z,18.40
2023-03-02T10:03:16.779Z,18.73
2023-03-02T10:05:52.546Z,19.05
2023-03-02T10:08:24.689Z,18.35
2023-03-02T10:11:00.269Z,18.65
2023-03-02T10:13:34.009Z,17.80
2023-03-02T10:16:11.914Z,18.70
2023-03-02T10:18:45.512Z,19.83
2023-03-02T10:21:22.179Z,18.45
2023-03-02T10:23:57.798Z,18.70
2023-03-02T10:26:33.239Z,18.60
2023-03-02T10:29:12.189Z,16.60
2023-03-02T10:31:46.262Z,17.30
2023-03-02T10:34:22.820Z,18.70
2023-03-02T10:36:57.174Z,18.60
2023-03-02T10:39:30.320Z,16.50
2023-03-02T10:42:04.078Z,16.90
2023-03-02T10:44:38.142Z,16.40
2023-03-02T10:47:20.295Z,16.90
2023-03-02T10:49:52.287Z,16.60
2023-03-02T10:52:24.455Z,16.20
2023-03-02T10:55:04.789Z,16.67
2023-03-02T10:57:39.474Z,16.10
2023-03-02T11:00:18.506Z,15.70
2023-03-02T11:02:56.310Z,15.80
2023-03-02T11:05:32.280Z,16.15
2023-03-02T11:08:04.880Z,16.75
2023-03-02T11:10:37.195Z,16.57
2023-03-02T11:13:20.843Z,16.35
2023-03-02T11:15:53.849Z,15.40
2023-03-02T11:18:27.537Z,16.55
2023-03-02T11:21:00.593Z,15.70
2023-03-02T11:23:38.045Z,15.90
2023-03-02T11:26:13.771Z,16.10
2023-03-02T11:28:48.037Z,15.35
2023-03-02T11:31:34.077Z,16.00
2023-03-02T11:34:17.942Z,16.20
2023-03-02T11:37:00.103Z,19.23
2023-03-02T11:39:46.449Z,16.93
2023-03-02T11:42:40.996Z,17.00
2023-03-02T11:45:28.718Z,16.03
2023-03-02T11:48:04.003Z,15.90
2023-03-02T11:50:37.508Z,15.87
2023-03-02T11:53:13.384Z,16.40
2023-03-02T11:55:48.801Z,17.33
2023-03-02T11:58:20.931Z,17.30
2023-03-02T12:00:54.827Z,15.10
2023-03-02T12:03:38.124Z,14.80
2023-03-02T12:06:25.770Z,15.90
2023-03-02T12:09:08.478Z,15.25
2023-03-02T12:11:41.072Z,17.97
2023-03-02T12:14:25.532Z,16.37
2023-03-02T12:17:06.779Z,15.13
2023-03-02T12:19:45.566Z,15.05
2023-03-02T12:22:27.473Z,13.77
2023-03-02T12:25:04.024Z,13.55
2023-03-02T12:27:40.055Z,14.15
2023-03-02T12:30:15.295Z,14.53
2023-03-02T12:32:48.496Z,15.13
2023-03-02T12:35:21.852Z,14.87
2023-03-02T12:37:57.492Z,14.20
2023-03-02T12:40:34.568Z,14.10
2023-03-02T12:43:25.508Z,13.83
2023-03-02T12:46:04.414Z,38.13
2023-03-02T12:48:40.342Z,17.57
2023-03-02T12:51:17.936Z,14.95
2023-03-02T12:53:49.327Z,13.77
2023-03-02T12:56:27.557Z,15.13
2023-03-02T12:58:58.928Z,15.03
2023-03-02T13:01:32.559Z,13.73
2023-03-02T13:04:03.653Z,13.80
2023-03-02T13:06:37.966Z,14.77
2023-03-02T13:09:15.447Z,14.28
2023-03-02T13:11:46.596Z,13.93
2023-03-02T13:14:22.251Z,16.93
2023-03-02T13:16:58.410Z,16.00
2023-03-02T13:19:32.276Z,15.63
2023-03-02T13:22:03.449Z,15.63
2023-03-02T13:24:37.822Z,14.83
2023-03-02T13:27:17.364Z,14.45
2023-03-02T13:29:49.513Z,14.03
2023-03-02T13:32:21.912Z,14.75
2023-03-02T13:34:53.981Z,13.20
2023-03-02T13:37:29.905Z,13.25
2023-03-02T13:40:01.764Z,14.07
2023-03-02T13:42:37.016Z,13.32
2023-03-02T13:45:15.521Z,15.23
2023-03-02T13:47:46.852Z,13.23
2023-03-02T13:50:21.618Z,13.05
2023-03-02T13:52:53.505Z,13.03
2023-03-02T13:55:25.252Z,13.43
2023-03-02T13:57:56.770Z,12.80
2023-03-02T14:00:29.115Z,13.13
2023-03-02T14:05:33.705Z,11.93
2023-03-02T14:08:07.141Z,12.10
2023-03-02T14:10:41.537Z,12.60
2023-03-02T14:13:15.291Z,12.28
2023-03-02T14:15:48.598Z,12.85
2023-03-02T14:18:27.773Z,12.77
2023-03-02T14:20:58.985Z,12.90
2023-03-02T14:23:30.232Z,12.77
2023-03-02T14:26:01.426Z,12.43
2023-03-02T14:28:36.142Z,12.70
2023-03-02T14:31:26.473Z,13.00
2023-03-02T14:34:03.647Z,13.05
2023-03-02T14:36:35.594Z,13.97
2023-03-02T14:39:36.467Z,13.72
2023-03-02T14:42:11.573Z,13.70
2023-03-02T14:44:42.539Z,15.25
2023-03-02T14:47:13.826Z,15.70
2023-03-02T14:49:45.050Z,15.60
2023-03-02T14:52:18.612Z,16.13
2023-03-02T14:54:51.767Z,15.25
2023-03-02T14:57:25.539Z,14.27
2023-03-02T15:00:00.206Z,15.50
2023-03-02T15:02:31.536Z,15.30
2023-03-02T15:05:02.521Z,15.57
2023-03-02T15:07:33.610Z,15.07
2023-03-02T15:10:05.009Z,15.15
2023-03-02T15:12:36.164Z,14.23
2023-03-02T15:15:08.017Z,12.50
2023-03-02T15:17:39.018Z,14.20
2023-03-02T15:20:15.323Z,15.73
2023-03-02T15:22:46.547Z,15.55
2023-03-02T15:25:17.769Z,16.95
2023-03-02T15:27:48.838Z,15.55
2023-03-02T15:30:20.504Z,15.60
2023-03-02T15:32:51.506Z,15.70
2023-03-02T15:35:22.720Z,15.93
2023-03-02T15:37:58.513Z,17.13
2023-03-02T15:40:29.618Z,16.33
2023-03-02T15:43:00.881Z,15.37
2023-03-02T15:45:31.909Z,16.03
2023-03-02T15:48:03.043Z,17.07
2023-03-02T15:50:34.130Z,15.17
2023-03-02T15:53:05.483Z,15.50
2023-03-02T15:55:36.525Z,16.60
2023-03-02T15:58:08.711Z,16.03
2023-03-02T16:03:10.344Z,16.30
2023-03-02T16:05:41.714Z,17.30
2023-03-02T16:08:12.850Z,17.33
2023-03-02T16:11:01.396Z,19.30
2023-03-02T16:13:50.512Z,18.77
2023-03-02T16:19:13.044Z,18.55
2023-03-02T16:21:44.103Z,18.90
2023-03-02T16:24:22.389Z,19.00
2023-03-02T16:29:41.304Z,18.55
2023-03-02T16:32:27.676Z,20.50
2023-03-02T16:34:58.958Z,19.80
2023-03-02T16:37:30.244Z,19.45
2023-03-02T16:40:01.244Z,19.80
2023-03-02T16:42:32.720Z,19.95
2023-03-02T16:45:03.749Z,21.65
2023-03-02T16:47:58.822Z,21.15
2023-03-02T16:50:29.951Z,21.60
2023-03-02T16:53:01.199Z,19.93
2023-03-02T16:55:32.247Z,20.80
2023-03-02T16:58:03.283Z,20.05
2023-03-02T17:00:34.316Z,19.95
2023-03-02T17:03:05.599Z,20.40
2023-03-02T17:05:36.829Z,19.97
2023-03-02T17:08:11.415Z,20.23
2023-03-02T17:10:42.564Z,20.10
2023-03-02T17:13:15.790Z,20.90
2023-03-02T17:15:55.064Z,20.45
2023-03-02T17:18:27.850Z,21.15
2023-03-02T17:21:00.362Z,22.85
2023-03-02T17:26:02.427Z,24.03
2023-03-02T17:28:33.612Z,26.00
2023-03-02T17:31:04.829Z,26.05
2023-03-02T17:33:36.246Z,27.25
2023-03-02T17:36:12.295Z,25.85
2023-03-02T17:38:43.410Z,27.15
2023-03-02T17:41:15.096Z,25.70
2023-03-02T17:44:12.123Z,27.02
2023-03-02T17:46:45.617Z,25.05
2023-03-02T17:49:16.729Z,26.15
2023-03-02T17:51:47.879Z,27.85
2023-03-02T17:54:19.021Z,25.55
2023-03-02T17:56:50.188Z,27.30
2023-03-02T17:59:21.302Z,30.17
2023-03-02T18:01:52.407Z,29.07
2023-03-02T18:04:23.717Z,30.47
2023-03-02T18:06:55.036Z,31.90
2023-03-02T18:09:26.114Z,34.60
2023-03-02T18:12:03.542Z,39.40
2023-03-02T18:14:42.895Z,40.65
2023-03-02T18:17:20.226Z,39.10
2023-03-02T18:19:51.370Z,36.55
2023-03-02T18:22:30.659Z,33.90
2023-03-02T18:25:01.796Z,32.55
2023-03-02T18:27:33.176Z,32.53
2023-03-02T18:30:04.578Z,32.20
2023-03-02T18:32:35.999Z,31.00
2023-03-02T18:35:07.766Z,28.73
2023-03-02T18:37:39.208Z,27.67
2023-03-02T18:40:12.761Z,25.48
2023-03-02T18:42:44.033Z,22.65
2023-03-02T18:45:19.393Z,22.05
2023-03-02T18:47:51.074Z,21.13
2023-03-02T18:50:22.801Z,22.52
2023-03-02T18:52:54.214Z,20.77
2023-03-02T18:55:26.047Z,21.90
2023-03-02T18:57:57.284Z,21.48
2023-03-02T19:00:29.367Z,21.40
2023-03-02T19:03:00.544Z,21.20
2023-03-02T19:05:31.756Z,23.77
2023-03-02T19:08:04.067Z,22.57
2023-03-02T19:10:36.336Z,23.53
2023-03-02T19:13:09.578Z,22.95
2023-03-02T19:15:41.983Z,21.63
2023-03-02T19:20:42.343Z,22.90
2023-03-02T19:23:13.814Z,23.30
2023-03-02T19:25:45.749Z,22.60
2023-03-02T19:28:24.393Z,22.50
2023-03-02T19:30:55.585Z,23.10
2023-03-02T19:33:27.500Z,22.13
2023-03-02T19:35:58.591Z,22.67
2023-03-02T19:38:30.139Z,21.80
2023-03-02T19:41:02.218Z,22.07
2023-03-02T19:43:33.467Z,22.77
2023-03-02T19:46:05.127Z,23.70
2023-03-02T19:48:36.625Z,22.82
2023-03-02T19:51:09.233Z,22.57
2023-03-02T19:53:41.502Z,21.50
2023-03-02T19:56:14.568Z,20.85
2023-03-02T19:58:50.183Z,21.10
2023-03-02T20:01:25.163Z,21.57
2023-03-02T20:03:59.345Z,21.87
2023-03-02T20:06:31.957Z,21.65
2023-03-02T20:09:05.346Z,23.07
2023-03-02T20:11:38.405Z,24.40
2023-03-02T20:14:09.468Z,24.13
2023-03-02T20:16:40.580Z,24.35
2023-03-02T20:19:14.240Z,25.10
2023-03-02T20:25:33.988Z,24.95
2023-03-02T20:28:05.984Z,25.50
2023-03-02T20:30:38.643Z,24.85
2023-03-02T20:33:10.964Z,25.30
2023-03-02T20:35:44.541Z,27.55
2023-03-02T20:38:23.842Z,29.50
2023-03-02T20:40:55.045Z,30.50
2023-03-02T20:43:26.630Z,29.95
2023-03-02T20:45:58.608Z,29.92
2023-03-02T20:48:29.842Z,28.52
2023-03-02T20:51:01.770Z,28.50
2023-03-02T20:53:32.799Z,27.95
2023-03-02T20:56:04.489Z,27.50
2023-03-02T20:58:37.448Z,26.45
2023-03-02T21:01:08.901Z,26.90
2023-03-02T21:03:40.440Z,29.02
2023-03-02T21:06:12.045Z,28.45
2023-03-02T21:08:43.268Z,27.45
2023-03-02T21:11:16.653Z,26.97
2023-03-02T21:13:48.154Z,26.65
2023-03-02T21:16:20.726Z,29.00
2023-03-02T21:21:29.700Z,25.55
2023-03-02T21:24:07.335Z,27.60
2023-03-02T21:26:38.719Z,28.42
2023-03-02T21:29:11.886Z,25.82
2023-03-02T21:31:44.082Z,26.85
2023-03-02T21:36:45.290Z,26.25
2023-03-02T21:39:18.756Z,26.00
2023-03-02T21:41:50.177Z,27.00
2023-03-02T21:44:21.433Z,28.53
2023-03-02T21:46:52.722Z,27.53
2023-03-02T21:49:23.922Z,26.55
2023-03-02T21:51:54.957Z,26.60
2023-03-02T21:54:29.476Z,24.90
2023-03-02T21:57:02.045Z,24.95
2023-03-02T21:59:33.159Z,25.83
2023-03-02T22:02:07.479Z,24.73
2023-03-02T22:04:38.974Z,24.83
2023-03-02T22:07:10.097Z,25.87
2023-03-02T22:09:41.276Z,24.80
2023-03-02T22:12:15.323Z,24.55
2023-03-02T22:14:46.310Z,24.40
2023-03-02T22:17:19.744Z,24.07
2023-03-02T22:19:52.245Z,23.53
2023-03-02T22:22:27.108Z,23.73
2023-03-02T22:24:58.293Z,23.40
2023-03-02T22:27:30.502Z,23.00
2023-03-02T22:30:03.677Z,24.32
2023-03-02T22:32:37.437Z,23.25
2023-03-02T22:35:21.311Z,24.20
2023-03-02T22:37:53.233Z,22.73
2023-03-02T22:40:30.253Z,22.90
2023-03-02T22:43:11.601Z,22.05
2023-03-02T22:45:43.461Z,23.15
2023-03-02T22:48:17.324Z,20.52
2023-03-02T22:50:49.879Z,21.77
2023-03-02T22:53:29.621Z,22.05
2023-03-02T22:56:02.212Z,21.83
2023-03-02T22:58:42.784Z,21.60
2023-03-02T23:01:20.483Z,21.80
2023-03-02T23:03:53.215Z,22.35
2023-03-02T23:06:29.863Z,21.93
2023-03-02T23:09:04.676Z,21.10
2023-03-02T23:11:38.879Z,21.25
2023-03-02T23:14:15.433Z,21.00
2023-03-02T23:16:50.107Z,20.70
2023-03-02T23:19:21.413Z,20.30
2023-03-02T23:21:55.541Z,20.85
2023-03-02T23:24:29.992Z,21.37
2023-03-02T23:27:03.520Z,22.00
2023-03-02T23:29:35.603Z,20.90
2023-03-02T23:32:06.940Z,21.77
2023-03-02T23:34:38.300Z,20.50
2023-03-02T23:37:09.587Z,21.23
2023-03-02T23:39:40.810Z,20.20
2023-03-02T23:42:12.735Z,20.35
2023-03-02T23:44:43.755Z,20.25
2023-03-02T23:47:14.953Z,20.00
2023-03-02T23:49:45.982Z,19.80
2023-03-02T23:52:17.132Z,20.77
2023-03-02T23:54:48.263Z,20.50
2023-03-02T23:57:19.296Z,20.75
2023-03-02T23:59:50.471Z,20.45
